Hlavní strana
METAR-TAF:

METAR-TAF

Letiště :

Launceston, Austrálie

zeměpisná šířka: 41-32S, zeměpisná délka: 147-12E, výška: 171 m

Aktuální stav počasí

Zpráva byla vytvořena před 20 minutami, v 12:00 UTC
Jižní vítr 4 kt
Teplota 8°C
Vlhkost vzduchu 87%
Tlak 1030 hPa
Viditelnost 10 km a více

METAR: YMLT 081200Z AUTO 17004KT 9999 // NCD 08/06 Q1030 RF00.0/000.0

Čas: 22:20 (12:20 UTC)

Předpověď počasí

Zpráva byla vytvořena před 1 hodinou a 3 minutami, v 11:17 UTC
Předpověď platná od 08 v 12 UTC do 09 v 12 UTC
Jižní vítr 6 kt
Viditelnost 10 km a více
Žádná oblačnost pod 1500 m, nevyskytují se cumulonimby.
Od 08 v 1500 UTC
vítr z různých směrů 3 kt
Viditelnost 10 km a více
Skoro jasno ve výšce 1500 ft
Polojasno ve výšce 2500 ft
Změna
od 09 v 00 UTC do 09 v 02 UTC
Severozápadní vítr 10 kt
Viditelnost 10 km a více
Žádná oblačnost pod 1500 m, nevyskytují se cumulonimby.

TAF: YMLT 081117Z 0812/0912 17006KT CAVOK FM081500 VRB03KT 9999 FEW015 SCT025 BECMG 0900/0902 31010KT CAVOK

Stav a předpovědi počasí z více než 4 000 letišť (zprávy METAR a TAF).

Červené a žluté tečky na mapě představují dostupné meteorologické stanice.

Když kurzor umístíte na tečku, zobrazí se název stanice.

Pak kliknutím zobrazíte stav a předpověď počasí.

Chcete-li změnit mapu, kliknutím na zelené tlačítko se znaménkem +mapu přiblížíte, kliknutím na zelené tlačítko se znaménkem – mapu oddálíte a kliknutím na zelené šipky přejdete na sousední mapy.


METAR-TAF: